sensor_id;sensor_type;location;lat;lon;timestamp;P1;durP1;ratioP1;P2;durP2;ratioP2
18383;SDS011;9318;48.644;9.456;2022-07-29T00:02:01;9.95;;;5.90;;
18383;SDS011;9318;48.644;9.456;2022-07-29T00:04:28;7.80;;;5.50;;
18383;SDS011;9318;48.644;9.456;2022-07-29T00:06:55;9.25;;;6.53;;
18383;SDS011;9318;48.644;9.456;2022-07-29T00:09:22;8.88;;;6.13;;
18383;SDS011;9318;48.644;9.456;2022-07-29T00:11:49;8.38;;;5.18;;
18383;SDS011;9318;48.644;9.456;2022-07-29T00:14:17;9.13;;;6.05;;
18383;SDS011;9318;48.644;9.456;2022-07-29T00:16:45;13.77;;;6.47;;
18383;SDS011;9318;48.644;9.456;2022-07-29T00:19:13;9.13;;;5.30;;
18383;SDS011;9318;48.644;9.456;2022-07-29T00:21:40;10.88;;;6.22;;
18383;SDS011;9318;48.644;9.456;2022-07-29T00:24:07;7.75;;;5.72;;
18383;SDS011;9318;48.644;9.456;2022-07-29T00:26:34;10.50;;;6.13;;
18383;SDS011;9318;48.644;9.456;2022-07-29T00:29:03;12.13;;;7.22;;
18383;SDS011;9318;48.644;9.456;2022-07-29T00:31:31;13.65;;;7.38;;
18383;SDS011;9318;48.644;9.456;2022-07-29T00:33:59;10.50;;;6.40;;
18383;SDS011;9318;48.644;9.456;2022-07-29T00:36:27;11.40;;;7.00;;
18383;SDS011;9318;48.644;9.456;2022-07-29T00:38:54;12.90;;;7.28;;
18383;SDS011;9318;48.644;9.456;2022-07-29T00:41:21;8.77;;;5.97;;
18383;SDS011;9318;48.644;9.456;2022-07-29T00:43:48;12.63;;;6.78;;
18383;SDS011;9318;48.644;9.456;2022-07-29T00:46:15;7.97;;;5.75;;
18383;SDS011;9318;48.644;9.456;2022-07-29T00:48:42;10.38;;;7.20;;
18383;SDS011;9318;48.644;9.456;2022-07-29T00:51:11;8.75;;;5.50;;
18383;SDS011;9318;48.644;9.456;2022-07-29T00:53:39;11.00;;;6.15;;
18383;SDS011;9318;48.644;9.456;2022-07-29T00:56:07;8.50;;;5.22;;
18383;SDS011;9318;48.644;9.456;2022-07-29T00:58:35;10.15;;;7.03;;
18383;SDS011;9318;48.644;9.456;2022-07-29T01:01:02;8.40;;;6.40;;
18383;SDS011;9318;48.644;9.456;2022-07-29T01:03:29;7.65;;;5.25;;
18383;SDS011;9318;48.644;9.456;2022-07-29T01:05:56;12.52;;;6.97;;
18383;SDS011;9318;48.644;9.456;2022-07-29T01:08:25;11.50;;;6.03;;
18383;SDS011;9318;48.644;9.456;2022-07-29T01:10:53;8.35;;;5.35;;
18383;SDS011;9318;48.644;9.456;2022-07-29T01:13:21;11.68;;;7.05;;
18383;SDS011;9318;48.644;9.456;2022-07-29T01:15:54;12.65;;;7.57;;
18383;SDS011;9318;48.644;9.456;2022-07-29T01:18:28;10.80;;;6.13;;
18383;SDS011;9318;48.644;9.456;2022-07-29T01:24:08;12.63;;;7.68;;
18383;SDS011;9318;48.644;9.456;2022-07-29T01:26:47;11.85;;;7.25;;
18383;SDS011;9318;48.644;9.456;2022-07-29T01:29:23;9.60;;;6.70;;
18383;SDS011;9318;48.644;9.456;2022-07-29T01:31:54;10.60;;;6.43;;
18383;SDS011;9318;48.644;9.456;2022-07-29T01:34:27;10.55;;;7.25;;
18383;SDS011;9318;48.644;9.456;2022-07-29T01:37:01;10.60;;;7.40;;
18383;SDS011;9318;48.644;9.456;2022-07-29T01:39:35;12.70;;;7.25;;
18383;SDS011;9318;48.644;9.456;2022-07-29T01:42:06;11.88;;;7.43;;
18383;SDS011;9318;48.644;9.456;2022-07-29T01:44:41;12.07;;;7.60;;
18383;SDS011;9318;48.644;9.456;2022-07-29T01:47:17;11.80;;;7.43;;
18383;SDS011;9318;48.644;9.456;2022-07-29T01:49:50;9.55;;;6.13;;
18383;SDS011;9318;48.644;9.456;2022-07-29T01:52:22;8.93;;;6.05;;
18383;SDS011;9318;48.644;9.456;2022-07-29T01:54:54;10.88;;;7.00;;
18383;SDS011;9318;48.644;9.456;2022-07-29T01:57:25;16.92;;;8.40;;
18383;SDS011;9318;48.644;9.456;2022-07-29T01:59:56;10.07;;;6.82;;
18383;SDS011;9318;48.644;9.456;2022-07-29T02:02:26;9.82;;;6.90;;
18383;SDS011;9318;48.644;9.456;2022-07-29T02:04:54;9.43;;;6.30;;
18383;SDS011;9318;48.644;9.456;2022-07-29T02:07:23;9.13;;;6.45;;
18383;SDS011;9318;48.644;9.456;2022-07-29T02:09:55;8.73;;;5.20;;
18383;SDS011;9318;48.644;9.456;2022-07-29T02:12:24;8.27;;;5.38;;
18383;SDS011;9318;48.644;9.456;2022-07-29T02:14:53;9.57;;;5.47;;
18383;SDS011;9318;48.644;9.456;2022-07-29T02:17:24;11.60;;;6.03;;
18383;SDS011;9318;48.644;9.456;2022-07-29T02:19:55;6.85;;;5.15;;
18383;SDS011;9318;48.644;9.456;2022-07-29T02:22:26;7.22;;;5.10;;
18383;SDS011;9318;48.644;9.456;2022-07-29T02:24:55;6.78;;;4.90;;
18383;SDS011;9318;48.644;9.456;2022-07-29T02:27:23;6.25;;;4.18;;
18383;SDS011;9318;48.644;9.456;2022-07-29T02:29:53;5.45;;;3.80;;
18383;SDS011;9318;48.644;9.456;2022-07-29T02:32:24;8.38;;;3.80;;
18383;SDS011;9318;48.644;9.456;2022-07-29T02:34:53;6.75;;;3.70;;
18383;SDS011;9318;48.644;9.456;2022-07-29T02:37:22;7.85;;;3.67;;
18383;SDS011;9318;48.644;9.456;2022-07-29T02:39:51;8.82;;;4.30;;
18383;SDS011;9318;48.644;9.456;2022-07-29T02:42:21;5.65;;;4.25;;
18383;SDS011;9318;48.644;9.456;2022-07-29T02:44:50;4.95;;;4.00;;
18383;SDS011;9318;48.644;9.456;2022-07-29T02:47:20;6.13;;;3.30;;
18383;SDS011;9318;48.644;9.456;2022-07-29T02:49:52;7.20;;;4.18;;
18383;SDS011;9318;48.644;9.456;2022-07-29T02:52:24;4.30;;;3.60;;
18383;SDS011;9318;48.644;9.456;2022-07-29T02:54:56;6.20;;;4.00;;
18383;SDS011;9318;48.644;9.456;2022-07-29T02:57:30;5.72;;;3.80;;
18383;SDS011;9318;48.644;9.456;2022-07-29T03:00:04;5.13;;;3.50;;
18383;SDS011;9318;48.644;9.456;2022-07-29T03:02:35;4.28;;;3.75;;
18383;SDS011;9318;48.644;9.456;2022-07-29T03:05:05;6.22;;;3.63;;
18383;SDS011;9318;48.644;9.456;2022-07-29T03:07:34;4.97;;;3.45;;
18383;SDS011;9318;48.644;9.456;2022-07-29T03:10:03;4.43;;;3.80;;
18383;SDS011;9318;48.644;9.456;2022-07-29T03:12:33;5.85;;;3.80;;
18383;SDS011;9318;48.644;9.456;2022-07-29T03:15:01;5.30;;;3.85;;
18383;SDS011;9318;48.644;9.456;2022-07-29T03:17:29;5.60;;;3.75;;
18383;SDS011;9318;48.644;9.456;2022-07-29T03:19:59;5.90;;;3.88;;
18383;SDS011;9318;48.644;9.456;2022-07-29T03:22:27;7.13;;;4.00;;
18383;SDS011;9318;48.644;9.456;2022-07-29T03:24:54;10.27;;;4.25;;
18383;SDS011;9318;48.644;9.456;2022-07-29T03:27:21;5.50;;;4.10;;
18383;SDS011;9318;48.644;9.456;2022-07-29T03:29:49;5.22;;;4.03;;
18383;SDS011;9318;48.644;9.456;2022-07-29T03:32:16;5.80;;;4.05;;
18383;SDS011;9318;48.644;9.456;2022-07-29T03:34:43;6.55;;;4.28;;
18383;SDS011;9318;48.644;9.456;2022-07-29T03:37:12;5.47;;;3.97;;
18383;SDS011;9318;48.644;9.456;2022-07-29T03:39:40;7.15;;;3.97;;
18383;SDS011;9318;48.644;9.456;2022-07-29T03:42:10;7.10;;;4.05;;
18383;SDS011;9318;48.644;9.456;2022-07-29T03:44:41;4.95;;;3.90;;
18383;SDS011;9318;48.644;9.456;2022-07-29T03:47:12;8.00;;;4.70;;
18383;SDS011;9318;48.644;9.456;2022-07-29T03:49:41;5.45;;;4.07;;
18383;SDS011;9318;48.644;9.456;2022-07-29T03:52:12;5.38;;;3.75;;
18383;SDS011;9318;48.644;9.456;2022-07-29T03:54:39;9.25;;;4.88;;
18383;SDS011;9318;48.644;9.456;2022-07-29T03:57:07;6.35;;;4.78;;
18383;SDS011;9318;48.644;9.456;2022-07-29T03:59:37;10.68;;;6.93;;
18383;SDS011;9318;48.644;9.456;2022-07-29T04:02:06;9.32;;;6.22;;
18383;SDS011;9318;48.644;9.456;2022-07-29T04:04:37;13.65;;;8.80;;
18383;SDS011;9318;48.644;9.456;2022-07-29T04:07:04;6.65;;;5.07;;
18383;SDS011;9318;48.644;9.456;2022-07-29T04:09:33;7.68;;;5.10;;
18383;SDS011;9318;48.644;9.456;2022-07-29T04:12:00;11.65;;;8.48;;
18383;SDS011;9318;48.644;9.456;2022-07-29T04:14:27;16.80;;;9.15;;
18383;SDS011;9318;48.644;9.456;2022-07-29T04:16:55;15.52;;;9.25;;
18383;SDS011;9318;48.644;9.456;2022-07-29T04:19:22;16.27;;;9.20;;
18383;SDS011;9318;48.644;9.456;2022-07-29T04:21:49;12.70;;;7.47;;
18383;SDS011;9318;48.644;9.456;2022-07-29T04:24:16;11.73;;;7.07;;
18383;SDS011;9318;48.644;9.456;2022-07-29T04:26:46;12.70;;;8.63;;
18383;SDS011;9318;48.644;9.456;2022-07-29T04:29:14;11.10;;;7.28;;
18383;SDS011;9318;48.644;9.456;2022-07-29T04:31:41;14.15;;;8.52;;
18383;SDS011;9318;48.644;9.456;2022-07-29T04:34:09;10.27;;;7.63;;
18383;SDS011;9318;48.644;9.456;2022-07-29T04:36:36;14.80;;;9.57;;
18383;SDS011;9318;48.644;9.456;2022-07-29T04:39:04;11.40;;;7.65;;
18383;SDS011;9318;48.644;9.456;2022-07-29T04:41:31;9.13;;;6.15;;
18383;SDS011;9318;48.644;9.456;2022-07-29T04:44:00;13.40;;;7.70;;
18383;SDS011;9318;48.644;9.456;2022-07-29T04:46:30;15.93;;;7.97;;
18383;SDS011;9318;48.644;9.456;2022-07-29T04:48:59;10.90;;;6.38;;
18383;SDS011;9318;48.644;9.456;2022-07-29T04:51:28;7.68;;;5.38;;
18383;SDS011;9318;48.644;9.456;2022-07-29T04:53:56;8.20;;;5.95;;
18383;SDS011;9318;48.644;9.456;2022-07-29T04:56:23;11.27;;;6.80;;
18383;SDS011;9318;48.644;9.456;2022-07-29T04:58:51;12.50;;;6.38;;
18383;SDS011;9318;48.644;9.456;2022-07-29T05:01:21;8.00;;;5.18;;
18383;SDS011;9318;48.644;9.456;2022-07-29T05:03:48;8.07;;;5.05;;
18383;SDS011;9318;48.644;9.456;2022-07-29T05:06:15;6.40;;;4.95;;
18383;SDS011;9318;48.644;9.456;2022-07-29T05:08:42;9.05;;;5.38;;
18383;SDS011;9318;48.644;9.456;2022-07-29T05:11:10;7.18;;;5.07;;
18383;SDS011;9318;48.644;9.456;2022-07-29T05:13:37;7.82;;;5.60;;
18383;SDS011;9318;48.644;9.456;2022-07-29T05:16:04;10.27;;;6.05;;
18383;SDS011;9318;48.644;9.456;2022-07-29T05:18:33;10.10;;;5.63;;
18383;SDS011;9318;48.644;9.456;2022-07-29T05:21:00;10.57;;;6.10;;
18383;SDS011;9318;48.644;9.456;2022-07-29T05:23:27;10.00;;;5.53;;
18383;SDS011;9318;48.644;9.456;2022-07-29T05:25:55;11.85;;;5.63;;
18383;SDS011;9318;48.644;9.456;2022-07-29T05:28:22;8.52;;;5.60;;
18383;SDS011;9318;48.644;9.456;2022-07-29T05:30:49;9.98;;;5.90;;
18383;SDS011;9318;48.644;9.456;2022-07-29T05:33:16;6.82;;;4.78;;
18383;SDS011;9318;48.644;9.456;2022-07-29T05:35:45;12.95;;;6.00;;
18383;SDS011;9318;48.644;9.456;2022-07-29T05:38:12;7.70;;;5.55;;
18383;SDS011;9318;48.644;9.456;2022-07-29T05:40:39;8.73;;;5.85;;
18383;SDS011;9318;48.644;9.456;2022-07-29T05:43:07;9.13;;;5.80;;
18383;SDS011;9318;48.644;9.456;2022-07-29T05:45:34;9.05;;;5.90;;
18383;SDS011;9318;48.644;9.456;2022-07-29T05:48:02;10.77;;;5.90;;
18383;SDS011;9318;48.644;9.456;2022-07-29T05:50:29;9.88;;;6.00;;
18383;SDS011;9318;48.644;9.456;2022-07-29T05:52:58;7.53;;;5.07;;
18383;SDS011;9318;48.644;9.456;2022-07-29T05:55:25;9.18;;;5.78;;
18383;SDS011;9318;48.644;9.456;2022-07-29T05:57:53;12.30;;;6.10;;
18383;SDS011;9318;48.644;9.456;2022-07-29T06:00:20;8.95;;;5.72;;
18383;SDS011;9318;48.644;9.456;2022-07-29T06:02:47;8.60;;;5.53;;
18383;SDS011;9318;48.644;9.456;2022-07-29T06:05:15;13.50;;;5.90;;
18383;SDS011;9318;48.644;9.456;2022-07-29T06:07:42;9.98;;;6.05;;
18383;SDS011;9318;48.644;9.456;2022-07-29T06:10:11;10.18;;;5.72;;
18383;SDS011;9318;48.644;9.456;2022-07-29T06:12:38;11.30;;;6.03;;
18383;SDS011;9318;48.644;9.456;2022-07-29T06:15:06;15.20;;;5.68;;
18383;SDS011;9318;48.644;9.456;2022-07-29T06:17:34;12.38;;;6.30;;
18383;SDS011;9318;48.644;9.456;2022-07-29T06:20:01;12.25;;;6.70;;
18383;SDS011;9318;48.644;9.456;2022-07-29T06:22:29;8.77;;;5.75;;
18383;SDS011;9318;48.644;9.456;2022-07-29T06:24:56;7.15;;;5.50;;
18383;SDS011;9318;48.644;9.456;2022-07-29T06:27:24;10.98;;;5.63;;
18383;SDS011;9318;48.644;9.456;2022-07-29T06:29:52;6.53;;;4.85;;
18383;SDS011;9318;48.644;9.456;2022-07-29T06:32:19;7.70;;;5.18;;
18383;SDS011;9318;48.644;9.456;2022-07-29T06:34:46;8.18;;;5.13;;
18383;SDS011;9318;48.644;9.456;2022-07-29T06:37:14;9.13;;;5.63;;
18383;SDS011;9318;48.644;9.456;2022-07-29T06:39:42;7.18;;;5.10;;
18383;SDS011;9318;48.644;9.456;2022-07-29T06:42:09;6.82;;;5.10;;
18383;SDS011;9318;48.644;9.456;2022-07-29T06:44:38;8.23;;;5.18;;
18383;SDS011;9318;48.644;9.456;2022-07-29T06:47:05;9.70;;;5.53;;
18383;SDS011;9318;48.644;9.456;2022-07-29T06:49:33;8.90;;;5.38;;
18383;SDS011;9318;48.644;9.456;2022-07-29T06:52:00;6.40;;;4.72;;
18383;SDS011;9318;48.644;9.456;2022-07-29T06:54:27;8.52;;;4.70;;
18383;SDS011;9318;48.644;9.456;2022-07-29T06:56:54;8.02;;;4.88;;
18383;SDS011;9318;48.644;9.456;2022-07-29T06:59:22;8.02;;;5.07;;
18383;SDS011;9318;48.644;9.456;2022-07-29T07:01:50;5.03;;;3.92;;
18383;SDS011;9318;48.644;9.456;2022-07-29T07:04:18;6.85;;;4.85;;
18383;SDS011;9318;48.644;9.456;2022-07-29T07:06:45;8.32;;;4.30;;
18383;SDS011;9318;48.644;9.456;2022-07-29T07:09:12;6.60;;;4.20;;
18383;SDS011;9318;48.644;9.456;2022-07-29T07:11:39;5.75;;;4.10;;
18383;SDS011;9318;48.644;9.456;2022-07-29T07:14:07;6.80;;;4.65;;
18383;SDS011;9318;48.644;9.456;2022-07-29T07:16:34;8.20;;;5.10;;
18383;SDS011;9318;48.644;9.456;2022-07-29T07:19:02;7.95;;;4.80;;
18383;SDS011;9318;48.644;9.456;2022-07-29T07:21:30;8.00;;;4.65;;
18383;SDS011;9318;48.644;9.456;2022-07-29T07:23:59;7.15;;;3.92;;
18383;SDS011;9318;48.644;9.456;2022-07-29T07:26:26;9.70;;;5.18;;
18383;SDS011;9318;48.644;9.456;2022-07-29T07:28:54;9.23;;;4.70;;
18383;SDS011;9318;48.644;9.456;2022-07-29T07:31:21;6.95;;;4.63;;
18383;SDS011;9318;48.644;9.456;2022-07-29T07:33:48;8.98;;;4.32;;
18383;SDS011;9318;48.644;9.456;2022-07-29T07:36:18;7.32;;;4.60;;
18383;SDS011;9318;48.644;9.456;2022-07-29T07:38:45;5.82;;;4.50;;
18383;SDS011;9318;48.644;9.456;2022-07-29T07:41:12;7.25;;;4.35;;
18383;SDS011;9318;48.644;9.456;2022-07-29T07:43:40;9.98;;;4.35;;
18383;SDS011;9318;48.644;9.456;2022-07-29T07:46:07;6.78;;;4.57;;
18383;SDS011;9318;48.644;9.456;2022-07-29T07:48:34;6.07;;;4.20;;
18383;SDS011;9318;48.644;9.456;2022-07-29T07:51:02;6.47;;;4.50;;
18383;SDS011;9318;48.644;9.456;2022-07-29T07:53:30;6.60;;;4.05;;
18383;SDS011;9318;48.644;9.456;2022-07-29T07:55:58;5.15;;;3.80;;
18383;SDS011;9318;48.644;9.456;2022-07-29T07:58:25;5.15;;;4.00;;
18383;SDS011;9318;48.644;9.456;2022-07-29T08:00:52;7.38;;;4.60;;
18383;SDS011;9318;48.644;9.456;2022-07-29T08:03:20;7.00;;;4.55;;
18383;SDS011;9318;48.644;9.456;2022-07-29T08:05:47;7.05;;;4.53;;
18383;SDS011;9318;48.644;9.456;2022-07-29T08:08:16;5.75;;;4.40;;
18383;SDS011;9318;48.644;9.456;2022-07-29T08:10:44;5.32;;;4.03;;
18383;SDS011;9318;48.644;9.456;2022-07-29T08:13:22;6.88;;;4.72;;
18383;SDS011;9318;48.644;9.456;2022-07-29T08:15:53;6.03;;;4.55;;
18383;SDS011;9318;48.644;9.456;2022-07-29T08:18:25;6.03;;;4.35;;
18383;SDS011;9318;48.644;9.456;2022-07-29T08:20:52;10.18;;;5.10;;
18383;SDS011;9318;48.644;9.456;2022-07-29T08:23:20;7.63;;;4.20;;
18383;SDS011;9318;48.644;9.456;2022-07-29T08:25:49;5.55;;;4.30;;
18383;SDS011;9318;48.644;9.456;2022-07-29T08:28:16;6.80;;;4.03;;
18383;SDS011;9318;48.644;9.456;2022-07-29T08:30:44;9.23;;;4.82;;
18383;SDS011;9318;48.644;9.456;2022-07-29T08:33:11;10.55;;;5.25;;
18383;SDS011;9318;48.644;9.456;2022-07-29T08:35:39;7.78;;;4.82;;
18383;SDS011;9318;48.644;9.456;2022-07-29T08:38:06;4.35;;;3.83;;
18383;SDS011;9318;48.644;9.456;2022-07-29T08:40:33;4.88;;;3.92;;
18383;SDS011;9318;48.644;9.456;2022-07-29T08:43:05;6.22;;;4.10;;
18383;SDS011;9318;48.644;9.456;2022-07-29T08:45:41;9.98;;;5.05;;
18383;SDS011;9318;48.644;9.456;2022-07-29T08:48:10;9.60;;;5.13;;
18383;SDS011;9318;48.644;9.456;2022-07-29T08:50:38;7.72;;;4.78;;
18383;SDS011;9318;48.644;9.456;2022-07-29T08:53:07;8.13;;;3.90;;
18383;SDS011;9318;48.644;9.456;2022-07-29T08:55:38;8.07;;;4.97;;
18383;SDS011;9318;48.644;9.456;2022-07-29T08:58:08;9.93;;;5.38;;
18383;SDS011;9318;48.644;9.456;2022-07-29T09:00:36;5.93;;;4.00;;
18383;SDS011;9318;48.644;9.456;2022-07-29T09:03:07;8.30;;;4.95;;
18383;SDS011;9318;48.644;9.456;2022-07-29T09:05:35;7.97;;;5.30;;
18383;SDS011;9318;48.644;9.456;2022-07-29T09:08:03;12.10;;;5.32;;
18383;SDS011;9318;48.644;9.456;2022-07-29T09:10:31;9.88;;;5.35;;
18383;SDS011;9318;48.644;9.456;2022-07-29T09:12:58;10.98;;;5.20;;
18383;SDS011;9318;48.644;9.456;2022-07-29T09:15:27;9.55;;;6.30;;
18383;SDS011;9318;48.644;9.456;2022-07-29T09:17:54;8.60;;;5.38;;
18383;SDS011;9318;48.644;9.456;2022-07-29T09:20:23;5.22;;;4.28;;
18383;SDS011;9318;48.644;9.456;2022-07-29T09:22:51;6.65;;;4.20;;
18383;SDS011;9318;48.644;9.456;2022-07-29T09:25:31;6.00;;;4.00;;
18383;SDS011;9318;48.644;9.456;2022-07-29T09:28:05;9.55;;;5.70;;
18383;SDS011;9318;48.644;9.456;2022-07-29T09:30:35;8.38;;;5.00;;
18383;SDS011;9318;48.644;9.456;2022-07-29T09:33:05;9.85;;;5.60;;
18383;SDS011;9318;48.644;9.456;2022-07-29T09:35:32;6.57;;;4.10;;
18383;SDS011;9318;48.644;9.456;2022-07-29T09:38:09;9.85;;;5.07;;
18383;SDS011;9318;48.644;9.456;2022-07-29T09:40:37;6.97;;;4.60;;
18383;SDS011;9318;48.644;9.456;2022-07-29T09:43:11;6.45;;;4.38;;
18383;SDS011;9318;48.644;9.456;2022-07-29T09:45:40;8.30;;;4.70;;
18383;SDS011;9318;48.644;9.456;2022-07-29T09:48:14;8.20;;;4.18;;
18383;SDS011;9318;48.644;9.456;2022-07-29T09:50:43;9.73;;;5.07;;
18383;SDS011;9318;48.644;9.456;2022-07-29T09:53:12;9.40;;;4.70;;
18383;SDS011;9318;48.644;9.456;2022-07-29T09:55:57;8.38;;;4.68;;
18383;SDS011;9318;48.644;9.456;2022-07-29T09:58:25;12.63;;;4.70;;
18383;SDS011;9318;48.644;9.456;2022-07-29T10:00:54;8.07;;;4.63;;
18383;SDS011;9318;48.644;9.456;2022-07-29T10:03:22;8.70;;;5.03;;
18383;SDS011;9318;48.644;9.456;2022-07-29T10:06:03;10.95;;;5.00;;
18383;SDS011;9318;48.644;9.456;2022-07-29T10:08:32;8.45;;;4.90;;
18383;SDS011;9318;48.644;9.456;2022-07-29T10:11:08;6.05;;;3.97;;
18383;SDS011;9318;48.644;9.456;2022-07-29T10:13:37;11.60;;;4.63;;
18383;SDS011;9318;48.644;9.456;2022-07-29T10:16:07;8.88;;;4.55;;
18383;SDS011;9318;48.644;9.456;2022-07-29T10:18:34;10.07;;;4.95;;
18383;SDS011;9318;48.644;9.456;2022-07-29T10:21:04;7.55;;;4.28;;
18383;SDS011;9318;48.644;9.456;2022-07-29T10:23:32;5.80;;;4.28;;
18383;SDS011;9318;48.644;9.456;2022-07-29T10:26:01;9.15;;;4.60;;
18383;SDS011;9318;48.644;9.456;2022-07-29T10:28:30;5.00;;;4.00;;
18383;SDS011;9318;48.644;9.456;2022-07-29T10:30:59;6.50;;;3.80;;
18383;SDS011;9318;48.644;9.456;2022-07-29T10:33:35;9.23;;;4.32;;
18383;SDS011;9318;48.644;9.456;2022-07-29T10:36:20;6.32;;;4.00;;
18383;SDS011;9318;48.644;9.456;2022-07-29T10:38:55;8.82;;;4.10;;
18383;SDS011;9318;48.644;9.456;2022-07-29T10:41:35;10.07;;;4.75;;
18383;SDS011;9318;48.644;9.456;2022-07-29T10:44:16;6.35;;;4.15;;
18383;SDS011;9318;48.644;9.456;2022-07-29T10:46:45;7.38;;;4.32;;
18383;SDS011;9318;48.644;9.456;2022-07-29T10:49:14;8.93;;;4.38;;
18383;SDS011;9318;48.644;9.456;2022-07-29T10:51:56;8.48;;;4.80;;
18383;SDS011;9318;48.644;9.456;2022-07-29T10:57:16;8.98;;;4.97;;
18383;SDS011;9318;48.644;9.456;2022-07-29T10:59:46;8.63;;;4.97;;
18383;SDS011;9318;48.644;9.456;2022-07-29T11:05:12;8.13;;;4.93;;
18383;SDS011;9318;48.644;9.456;2022-07-29T11:10:47;7.70;;;4.50;;
18383;SDS011;9318;48.644;9.456;2022-07-29T11:16:15;6.68;;;4.65;;
18383;SDS011;9318;48.644;9.456;2022-07-29T11:21:49;8.00;;;5.20;;
18383;SDS011;9318;48.644;9.456;2022-07-29T11:24:18;7.72;;;4.90;;
18383;SDS011;9318;48.644;9.456;2022-07-29T11:29:39;10.43;;;5.45;;
18383;SDS011;9318;48.644;9.456;2022-07-29T11:32:14;11.68;;;5.18;;
18383;SDS011;9318;48.644;9.456;2022-07-29T11:34:44;9.07;;;4.70;;
18383;SDS011;9318;48.644;9.456;2022-07-29T11:37:17;8.88;;;5.10;;
18383;SDS011;9318;48.644;9.456;2022-07-29T11:42:42;7.68;;;5.10;;
18383;SDS011;9318;48.644;9.456;2022-07-29T11:45:15;9.30;;;4.93;;
18383;SDS011;9318;48.644;9.456;2022-07-29T11:47:57;6.97;;;4.05;;
18383;SDS011;9318;48.644;9.456;2022-07-29T11:50:30;5.28;;;4.00;;
18383;SDS011;9318;48.644;9.456;2022-07-29T11:53:00;7.38;;;3.13;;
18383;SDS011;9318;48.644;9.456;2022-07-29T11:55:29;4.72;;;3.25;;
18383;SDS011;9318;48.644;9.456;2022-07-29T11:58:00;4.53;;;3.20;;
18383;SDS011;9318;48.644;9.456;2022-07-29T12:00:29;5.40;;;3.20;;
18383;SDS011;9318;48.644;9.456;2022-07-29T12:02:58;4.53;;;3.45;;
18383;SDS011;9318;48.644;9.456;2022-07-29T12:05:35;6.63;;;3.63;;
18383;SDS011;9318;48.644;9.456;2022-07-29T12:08:13;6.90;;;3.70;;
18383;SDS011;9318;48.644;9.456;2022-07-29T12:10:41;4.90;;;3.60;;
18383;SDS011;9318;48.644;9.456;2022-07-29T12:13:09;7.53;;;3.55;;
18383;SDS011;9318;48.644;9.456;2022-07-29T12:15:37;13.68;;;4.28;;
18383;SDS011;9318;48.644;9.456;2022-07-29T12:18:11;10.23;;;4.20;;
18383;SDS011;9318;48.644;9.456;2022-07-29T12:20:40;7.38;;;3.72;;
18383;SDS011;9318;48.644;9.456;2022-07-29T12:23:07;7.57;;;3.90;;
18383;SDS011;9318;48.644;9.456;2022-07-29T12:25:39;7.78;;;3.90;;
18383;SDS011;9318;48.644;9.456;2022-07-29T12:28:07;7.35;;;3.90;;
18383;SDS011;9318;48.644;9.456;2022-07-29T12:30:40;7.53;;;3.78;;
18383;SDS011;9318;48.644;9.456;2022-07-29T12:33:14;5.93;;;3.42;;
18383;SDS011;9318;48.644;9.456;2022-07-29T12:35:44;10.60;;;3.60;;
18383;SDS011;9318;48.644;9.456;2022-07-29T12:38:13;5.70;;;3.30;;
18383;SDS011;9318;48.644;9.456;2022-07-29T12:40:43;4.53;;;3.40;;
18383;SDS011;9318;48.644;9.456;2022-07-29T12:43:12;4.32;;;2.95;;
18383;SDS011;9318;48.644;9.456;2022-07-29T12:45:44;5.38;;;3.30;;
18383;SDS011;9318;48.644;9.456;2022-07-29T12:48:13;4.32;;;3.17;;
18383;SDS011;9318;48.644;9.456;2022-07-29T12:50:54;4.53;;;3.15;;
18383;SDS011;9318;48.644;9.456;2022-07-29T12:53:23;4.85;;;3.15;;
18383;SDS011;9318;48.644;9.456;2022-07-29T12:55:53;4.10;;;3.00;;
18383;SDS011;9318;48.644;9.456;2022-07-29T12:58:28;5.07;;;3.42;;
18383;SDS011;9318;48.644;9.456;2022-07-29T13:01:04;4.85;;;3.13;;
18383;SDS011;9318;48.644;9.456;2022-07-29T13:03:50;6.38;;;3.13;;
18383;SDS011;9318;48.644;9.456;2022-07-29T13:06:32;5.63;;;3.10;;
18383;SDS011;9318;48.644;9.456;2022-07-29T13:09:02;4.07;;;3.03;;
18383;SDS011;9318;48.644;9.456;2022-07-29T13:11:33;4.35;;;3.20;;
18383;SDS011;9318;48.644;9.456;2022-07-29T13:14:02;4.80;;;3.30;;
18383;SDS011;9318;48.644;9.456;2022-07-29T13:16:29;5.22;;;3.30;;
18383;SDS011;9318;48.644;9.456;2022-07-29T13:19:03;4.93;;;3.38;;
18383;SDS011;9318;48.644;9.456;2022-07-29T13:21:32;5.18;;;3.33;;
18383;SDS011;9318;48.644;9.456;2022-07-29T13:23:59;4.60;;;3.58;;
18383;SDS011;9318;48.644;9.456;2022-07-29T13:26:27;11.23;;;7.00;;
18383;SDS011;9318;48.644;9.456;2022-07-29T13:28:56;8.40;;;6.13;;
18383;SDS011;9318;48.644;9.456;2022-07-29T13:31:23;8.10;;;4.95;;
18383;SDS011;9318;48.644;9.456;2022-07-29T13:33:50;4.93;;;4.00;;
18383;SDS011;9318;48.644;9.456;2022-07-29T13:36:18;11.73;;;7.47;;
18383;SDS011;9318;48.644;9.456;2022-07-29T13:38:45;25.13;;;15.20;;
18383;SDS011;9318;48.644;9.456;2022-07-29T13:41:12;14.70;;;8.45;;
18383;SDS011;9318;48.644;9.456;2022-07-29T13:43:39;9.60;;;6.18;;
18383;SDS011;9318;48.644;9.456;2022-07-29T13:46:08;10.82;;;5.47;;
18383;SDS011;9318;48.644;9.456;2022-07-29T13:48:36;5.95;;;3.88;;
18383;SDS011;9318;48.644;9.456;2022-07-29T13:51:03;6.25;;;4.43;;
18383;SDS011;9318;48.644;9.456;2022-07-29T13:53:30;7.22;;;4.10;;
18383;SDS011;9318;48.644;9.456;2022-07-29T13:55:57;5.88;;;3.92;;
18383;SDS011;9318;48.644;9.456;2022-07-29T13:58:25;6.28;;;4.10;;
18383;SDS011;9318;48.644;9.456;2022-07-29T14:00:52;7.90;;;4.30;;
18383;SDS011;9318;48.644;9.456;2022-07-29T14:03:21;5.40;;;4.18;;
18383;SDS011;9318;48.644;9.456;2022-07-29T14:05:49;7.68;;;4.03;;
18383;SDS011;9318;48.644;9.456;2022-07-29T14:08:16;7.47;;;4.78;;
18383;SDS011;9318;48.644;9.456;2022-07-29T14:10:44;6.25;;;4.20;;
18383;SDS011;9318;48.644;9.456;2022-07-29T14:13:11;5.45;;;4.22;;
18383;SDS011;9318;48.644;9.456;2022-07-29T14:15:39;6.93;;;4.57;;
18383;SDS011;9318;48.644;9.456;2022-07-29T14:18:06;8.48;;;4.80;;
18383;SDS011;9318;48.644;9.456;2022-07-29T14:20:35;6.45;;;4.18;;
18383;SDS011;9318;48.644;9.456;2022-07-29T14:23:03;6.53;;;4.00;;
18383;SDS011;9318;48.644;9.456;2022-07-29T14:25:30;8.02;;;4.00;;
18383;SDS011;9318;48.644;9.456;2022-07-29T14:27:57;6.15;;;4.00;;
18383;SDS011;9318;48.644;9.456;2022-07-29T14:30:25;6.38;;;4.05;;
18383;SDS011;9318;48.644;9.456;2022-07-29T14:32:52;8.10;;;4.95;;
18383;SDS011;9318;48.644;9.456;2022-07-29T14:35:19;6.38;;;4.00;;
18383;SDS011;9318;48.644;9.456;2022-07-29T14:37:48;4.97;;;3.88;;
18383;SDS011;9318;48.644;9.456;2022-07-29T14:40:15;4.93;;;3.97;;
18383;SDS011;9318;48.644;9.456;2022-07-29T14:42:43;6.53;;;3.63;;
18383;SDS011;9318;48.644;9.456;2022-07-29T14:45:10;7.43;;;4.13;;
18383;SDS011;9318;48.644;9.456;2022-07-29T14:47:38;6.20;;;3.83;;
18383;SDS011;9318;48.644;9.456;2022-07-29T14:50:06;6.18;;;4.03;;
18383;SDS011;9318;48.644;9.456;2022-07-29T14:52:34;5.10;;;4.22;;
18383;SDS011;9318;48.644;9.456;2022-07-29T14:55:03;14.10;;;9.40;;
18383;SDS011;9318;48.644;9.456;2022-07-29T14:57:31;9.40;;;5.25;;
18383;SDS011;9318;48.644;9.456;2022-07-29T14:59:59;14.07;;;7.65;;
18383;SDS011;9318;48.644;9.456;2022-07-29T15:02:26;8.43;;;4.55;;
18383;SDS011;9318;48.644;9.456;2022-07-29T15:04:54;10.93;;;6.00;;
18383;SDS011;9318;48.644;9.456;2022-07-29T15:07:21;8.98;;;4.97;;
18383;SDS011;9318;48.644;9.456;2022-07-29T15:09:49;7.35;;;3.95;;
18383;SDS011;9318;48.644;9.456;2022-07-29T15:12:18;8.20;;;4.32;;
18383;SDS011;9318;48.644;9.456;2022-07-29T15:14:45;6.32;;;4.38;;
18383;SDS011;9318;48.644;9.456;2022-07-29T15:17:13;12.52;;;7.47;;
18383;SDS011;9318;48.644;9.456;2022-07-29T15:19:40;7.35;;;4.53;;
18383;SDS011;9318;48.644;9.456;2022-07-29T15:22:07;5.97;;;4.28;;
18383;SDS011;9318;48.644;9.456;2022-07-29T15:24:35;6.10;;;4.50;;
18383;SDS011;9318;48.644;9.456;2022-07-29T15:27:02;7.50;;;4.57;;
18383;SDS011;9318;48.644;9.456;2022-07-29T15:29:31;5.85;;;4.80;;
18383;SDS011;9318;48.644;9.456;2022-07-29T15:31:58;11.65;;;5.07;;
18383;SDS011;9318;48.644;9.456;2022-07-29T15:34:25;13.20;;;7.65;;